sensor_id;sensor_type;location;lat;lon;timestamp;pressure;altitude;pressure_sealevel;temperature;humidity
15678;BME280;7939;50.814;6.368;2022-10-15T00:00:31;99122.56;;;17.38;66.04
15678;BME280;7939;50.814;6.368;2022-10-15T00:02:57;99126.81;;;17.39;66.39
15678;BME280;7939;50.814;6.368;2022-10-15T00:05:24;99130.28;;;17.38;66.08
15678;BME280;7939;50.814;6.368;2022-10-15T00:07:51;99129.47;;;17.37;65.98
15678;BME280;7939;50.814;6.368;2022-10-15T00:10:19;99119.13;;;17.37;66.31
15678;BME280;7939;50.814;6.368;2022-10-15T00:12:47;99116.53;;;17.37;66.35
15678;BME280;7939;50.814;6.368;2022-10-15T00:15:14;99114.81;;;17.38;66.13
15678;BME280;7939;50.814;6.368;2022-10-15T00:17:41;99119.13;;;17.37;66.14
15678;BME280;7939;50.814;6.368;2022-10-15T00:20:09;99119.97;;;17.38;66.00
15678;BME280;7939;50.814;6.368;2022-10-15T00:22:36;99118.28;;;17.37;66.46
15678;BME280;7939;50.814;6.368;2022-10-15T00:25:04;99113.13;;;17.37;66.45
15678;BME280;7939;50.814;6.368;2022-10-15T00:27:30;99100.22;;;17.37;66.28
15678;BME280;7939;50.814;6.368;2022-10-15T00:29:59;99101.13;;;17.36;65.87
15678;BME280;7939;50.814;6.368;2022-10-15T00:32:27;99101.94;;;17.36;66.13
15678;BME280;7939;50.814;6.368;2022-10-15T00:34:54;99100.28;;;17.35;66.06
15678;BME280;7939;50.814;6.368;2022-10-15T00:37:21;99093.38;;;17.36;65.98
15678;BME280;7939;50.814;6.368;2022-10-15T00:39:47;99095.94;;;17.36;66.43
15678;BME280;7939;50.814;6.368;2022-10-15T00:42:14;99108.03;;;17.35;65.92
15678;BME280;7939;50.814;6.368;2022-10-15T00:44:53;99109.75;;;17.35;66.18
15678;BME280;7939;50.814;6.368;2022-10-15T00:47:29;99111.47;;;17.34;66.65
15678;BME280;7939;50.814;6.368;2022-10-15T00:50:03;99119.22;;;17.34;66.16
15678;BME280;7939;50.814;6.368;2022-10-15T00:52:36;99120.06;;;17.35;66.16
15678;BME280;7939;50.814;6.368;2022-10-15T00:55:06;99112.31;;;17.35;66.66
15678;BME280;7939;50.814;6.368;2022-10-15T00:57:34;99122.66;;;17.35;66.03
15678;BME280;7939;50.814;6.368;2022-10-15T01:00:07;99121.81;;;17.34;66.73
15678;BME280;7939;50.814;6.368;2022-10-15T01:02:36;99118.38;;;17.34;66.71
15678;BME280;7939;50.814;6.368;2022-10-15T01:05:03;99125.28;;;17.33;66.42
15678;BME280;7939;50.814;6.368;2022-10-15T01:07:30;99124.38;;;17.34;66.59
15678;BME280;7939;50.814;6.368;2022-10-15T01:09:56;99120.13;;;17.33;66.46
15678;BME280;7939;50.814;6.368;2022-10-15T01:12:32;99121.81;;;17.34;66.16
15678;BME280;7939;50.814;6.368;2022-10-15T01:15:09;99122.72;;;17.33;66.52
15678;BME280;7939;50.814;6.368;2022-10-15T01:17:43;99120.97;;;17.34;66.76
15678;BME280;7939;50.814;6.368;2022-10-15T01:20:36;99113.28;;;17.32;66.41
15678;BME280;7939;50.814;6.368;2022-10-15T01:26:11;99113.34;;;17.31;66.70
15678;BME280;7939;50.814;6.368;2022-10-15T01:28:47;99115.94;;;17.31;66.94
15678;BME280;7939;50.814;6.368;2022-10-15T01:31:26;99119.34;;;17.31;66.58
15678;BME280;7939;50.814;6.368;2022-10-15T01:34:00;99119.34;;;17.31;66.47
15678;BME280;7939;50.814;6.368;2022-10-15T01:36:33;99123.69;;;17.31;66.96
15678;BME280;7939;50.814;6.368;2022-10-15T01:39:09;99115.94;;;17.31;66.65
15678;BME280;7939;50.814;6.368;2022-10-15T01:41:40;99120.19;;;17.32;66.43
15678;BME280;7939;50.814;6.368;2022-10-15T01:44:12;99114.19;;;17.31;66.75
15678;BME280;7939;50.814;6.368;2022-10-15T01:46:45;99107.34;;;17.30;66.79
15678;BME280;7939;50.814;6.368;2022-10-15T01:49:16;99103.88;;;17.31;66.53
15678;BME280;7939;50.814;6.368;2022-10-15T01:51:47;99098.75;;;17.30;66.96
15678;BME280;7939;50.814;6.368;2022-10-15T01:54:16;99093.59;;;17.30;66.87
15678;BME280;7939;50.814;6.368;2022-10-15T01:56:44;99098.69;;;17.31;66.80
15678;BME280;7939;50.814;6.368;2022-10-15T01:59:15;99100.44;;;17.31;66.67
15678;BME280;7939;50.814;6.368;2022-10-15T02:01:45;99099.59;;;17.30;66.77
15678;BME280;7939;50.814;6.368;2022-10-15T02:04:17;99104.78;;;17.30;66.88
15678;BME280;7939;50.814;6.368;2022-10-15T02:06:44;99097.94;;;17.29;66.81
15678;BME280;7939;50.814;6.368;2022-10-15T02:09:22;99093.63;;;17.28;66.49
15678;BME280;7939;50.814;6.368;2022-10-15T02:11:59;99104.84;;;17.29;66.67
15678;BME280;7939;50.814;6.368;2022-10-15T02:14:32;99098.81;;;17.28;66.79
15678;BME280;7939;50.814;6.368;2022-10-15T02:17:05;99097.97;;;17.27;66.94
15678;BME280;7939;50.814;6.368;2022-10-15T02:19:39;99099.72;;;17.27;66.87
15678;BME280;7939;50.814;6.368;2022-10-15T02:22:12;99095.38;;;17.27;67.13
15678;BME280;7939;50.814;6.368;2022-10-15T02:24:46;99094.53;;;17.27;67.12
15678;BME280;7939;50.814;6.368;2022-10-15T02:27:17;99090.22;;;17.27;67.01
15678;BME280;7939;50.814;6.368;2022-10-15T02:29:48;99095.38;;;17.27;67.19
15678;BME280;7939;50.814;6.368;2022-10-15T02:32:19;99103.97;;;17.28;66.46
15678;BME280;7939;50.814;6.368;2022-10-15T02:34:47;99101.38;;;17.28;66.88
15678;BME280;7939;50.814;6.368;2022-10-15T02:37:16;99095.38;;;17.27;67.05
15678;BME280;7939;50.814;6.368;2022-10-15T02:39:44;99091.97;;;17.27;67.35
15678;BME280;7939;50.814;6.368;2022-10-15T02:42:11;99097.97;;;17.27;66.94
15678;BME280;7939;50.814;6.368;2022-10-15T02:44:37;99099.72;;;17.27;67.11
15678;BME280;7939;50.814;6.368;2022-10-15T02:47:04;99088.53;;;17.26;66.93
15678;BME280;7939;50.814;6.368;2022-10-15T02:49:32;99094.59;;;17.25;67.14
15678;BME280;7939;50.814;6.368;2022-10-15T02:51:59;99093.69;;;17.26;67.24
15678;BME280;7939;50.814;6.368;2022-10-15T02:54:25;99091.97;;;17.27;66.82
15678;BME280;7939;50.814;6.368;2022-10-15T02:56:52;99085.94;;;17.26;66.96
15678;BME280;7939;50.814;6.368;2022-10-15T02:59:19;99089.38;;;17.27;67.25
15678;BME280;7939;50.814;6.368;2022-10-15T03:01:46;99093.69;;;17.26;67.26
15678;BME280;7939;50.814;6.368;2022-10-15T03:04:13;99079.94;;;17.26;66.83
15678;BME280;7939;50.814;6.368;2022-10-15T03:06:41;99081.69;;;17.25;66.73
15678;BME280;7939;50.814;6.368;2022-10-15T03:09:07;99068.72;;;17.27;66.87
15678;BME280;7939;50.814;6.368;2022-10-15T03:11:34;99082.47;;;17.27;67.05
15678;BME280;7939;50.814;6.368;2022-10-15T03:14:00;99076.47;;;17.27;67.18
15678;BME280;7939;50.814;6.368;2022-10-15T03:16:27;99082.47;;;17.27;66.64
15678;BME280;7939;50.814;6.368;2022-10-15T03:18:53;99075.63;;;17.26;66.84
15678;BME280;7939;50.814;6.368;2022-10-15T03:21:20;99079.88;;;17.27;67.03
15678;BME280;7939;50.814;6.368;2022-10-15T03:23:48;99067.03;;;17.26;66.94
15678;BME280;7939;50.814;6.368;2022-10-15T03:26:15;99071.31;;;17.27;67.17
15678;BME280;7939;50.814;6.368;2022-10-15T03:28:42;99080.78;;;17.26;66.86
15678;BME280;7939;50.814;6.368;2022-10-15T03:31:08;99077.38;;;17.26;66.75
15678;BME280;7939;50.814;6.368;2022-10-15T03:33:35;99073.09;;;17.25;67.06
15678;BME280;7939;50.814;6.368;2022-10-15T03:36:01;99076.47;;;17.27;66.87
15678;BME280;7939;50.814;6.368;2022-10-15T03:38:28;99086.88;;;17.25;67.16
15678;BME280;7939;50.814;6.368;2022-10-15T03:40:56;99079.13;;;17.25;66.94
15678;BME280;7939;50.814;6.368;2022-10-15T03:43:24;99073.94;;;17.25;67.09
15678;BME280;7939;50.814;6.368;2022-10-15T03:45:51;99080.78;;;17.26;67.27
15678;BME280;7939;50.814;6.368;2022-10-15T03:48:18;99087.69;;;17.26;67.05
15678;BME280;7939;50.814;6.368;2022-10-15T03:50:45;99092.09;;;17.24;67.06
15678;BME280;7939;50.814;6.368;2022-10-15T03:53:11;99093.78;;;17.25;66.94
15678;BME280;7939;50.814;6.368;2022-10-15T03:55:38;99091.19;;;17.25;67.28
15678;BME280;7939;50.814;6.368;2022-10-15T03:58:06;99091.19;;;17.25;67.16
15678;BME280;7939;50.814;6.368;2022-10-15T04:00:33;99083.44;;;17.25;67.39
15678;BME280;7939;50.814;6.368;2022-10-15T04:02:59;99083.50;;;17.23;67.12
15678;BME280;7939;50.814;6.368;2022-10-15T04:05:26;99074.00;;;17.24;67.12
15678;BME280;7939;50.814;6.368;2022-10-15T04:07:52;99064.53;;;17.24;66.99
15678;BME280;7939;50.814;6.368;2022-10-15T04:10:19;99055.94;;;17.24;66.97
15678;BME280;7939;50.814;6.368;2022-10-15T04:12:46;99050.78;;;17.24;67.13
15678;BME280;7939;50.814;6.368;2022-10-15T04:15:13;99046.44;;;17.24;66.96
15678;BME280;7939;50.814;6.368;2022-10-15T04:17:40;99048.19;;;17.24;67.10
15678;BME280;7939;50.814;6.368;2022-10-15T04:20:07;99056.78;;;17.24;67.22
15678;BME280;7939;50.814;6.368;2022-10-15T04:22:35;99054.19;;;17.24;67.39
15678;BME280;7939;50.814;6.368;2022-10-15T04:25:02;99057.63;;;17.25;66.96
15678;BME280;7939;50.814;6.368;2022-10-15T04:27:29;99066.28;;;17.24;67.23
15678;BME280;7939;50.814;6.368;2022-10-15T04:29:56;99086.03;;;17.25;67.22
15678;BME280;7939;50.814;6.368;2022-10-15T04:32:24;99086.94;;;17.24;66.72
15678;BME280;7939;50.814;6.368;2022-10-15T04:34:51;99072.34;;;17.23;67.23
15678;BME280;7939;50.814;6.368;2022-10-15T04:37:17;99073.19;;;17.23;66.87
15678;BME280;7939;50.814;6.368;2022-10-15T04:39:44;99080.91;;;17.23;66.79
15678;BME280;7939;50.814;6.368;2022-10-15T04:42:11;99080.09;;;17.23;66.73
15678;BME280;7939;50.814;6.368;2022-10-15T04:44:37;99085.25;;;17.23;66.65
15678;BME280;7939;50.814;6.368;2022-10-15T04:47:04;99082.66;;;17.23;66.98
15678;BME280;7939;50.814;6.368;2022-10-15T04:49:32;99074.97;;;17.21;66.74
15678;BME280;7939;50.814;6.368;2022-10-15T04:51:59;99080.97;;;17.22;67.22
15678;BME280;7939;50.814;6.368;2022-10-15T04:54:25;99074.97;;;17.21;66.73
15678;BME280;7939;50.814;6.368;2022-10-15T04:56:52;99071.53;;;17.21;66.78
15678;BME280;7939;50.814;6.368;2022-10-15T04:59:18;99078.44;;;17.20;66.75
15678;BME280;7939;50.814;6.368;2022-10-15T05:01:45;99074.19;;;17.19;67.28
15678;BME280;7939;50.814;6.368;2022-10-15T05:04:12;99077.59;;;17.20;67.25
15678;BME280;7939;50.814;6.368;2022-10-15T05:06:40;99059.59;;;17.18;67.17
15678;BME280;7939;50.814;6.368;2022-10-15T05:09:06;99060.44;;;17.19;66.79
15678;BME280;7939;50.814;6.368;2022-10-15T05:11:36;99070.75;;;17.19;66.78
15678;BME280;7939;50.814;6.368;2022-10-15T05:14:03;99064.75;;;17.18;67.10
15678;BME280;7939;50.814;6.368;2022-10-15T05:16:31;99069.94;;;17.18;66.85
15678;BME280;7939;50.814;6.368;2022-10-15T05:18:59;99075.09;;;17.18;67.26
15678;BME280;7939;50.814;6.368;2022-10-15T05:21:27;99071.66;;;17.18;66.85
15678;BME280;7939;50.814;6.368;2022-10-15T05:23:55;99072.56;;;17.17;66.74
15678;BME280;7939;50.814;6.368;2022-10-15T05:26:23;99066.56;;;17.16;66.65
15678;BME280;7939;50.814;6.368;2022-10-15T05:28:51;99071.72;;;17.16;67.08
15678;BME280;7939;50.814;6.368;2022-10-15T05:31:19;99070.03;;;17.15;66.81
15678;BME280;7939;50.814;6.368;2022-10-15T05:33:46;99072.56;;;17.17;66.84
15678;BME280;7939;50.814;6.368;2022-10-15T05:36:15;99072.59;;;17.15;66.57
15678;BME280;7939;50.814;6.368;2022-10-15T05:38:42;99073.44;;;17.16;66.60
15678;BME280;7939;50.814;6.368;2022-10-15T05:41:10;99071.75;;;17.15;66.73
15678;BME280;7939;50.814;6.368;2022-10-15T05:43:37;99072.59;;;17.15;67.08
15678;BME280;7939;50.814;6.368;2022-10-15T05:46:04;99066.59;;;17.15;67.07
15678;BME280;7939;50.814;6.368;2022-10-15T05:48:31;99056.28;;;17.15;66.58
15678;BME280;7939;50.814;6.368;2022-10-15T05:51:01;99066.59;;;17.15;66.76
15678;BME280;7939;50.814;6.368;2022-10-15T05:53:28;99068.41;;;17.13;66.80
15678;BME280;7939;50.814;6.368;2022-10-15T05:55:55;99067.56;;;17.12;66.90
15678;BME280;7939;50.814;6.368;2022-10-15T05:58:24;99073.56;;;17.13;67.10
15678;BME280;7939;50.814;6.368;2022-10-15T06:00:55;99074.41;;;17.13;66.83
15678;BME280;7939;50.814;6.368;2022-10-15T06:03:22;99061.56;;;17.12;66.72
15678;BME280;7939;50.814;6.368;2022-10-15T06:05:49;99075.38;;;17.11;66.88
15678;BME280;7939;50.814;6.368;2022-10-15T06:08:16;99069.38;;;17.10;66.37
15678;BME280;7939;50.814;6.368;2022-10-15T06:10:42;99077.13;;;17.10;66.88
15678;BME280;7939;50.814;6.368;2022-10-15T06:13:09;99071.13;;;17.10;66.52
15678;BME280;7939;50.814;6.368;2022-10-15T06:15:39;99074.59;;;17.09;66.68
15678;BME280;7939;50.814;6.368;2022-10-15T06:18:06;99077.16;;;17.09;66.76
15678;BME280;7939;50.814;6.368;2022-10-15T06:20:33;99077.16;;;17.09;66.88
15678;BME280;7939;50.814;6.368;2022-10-15T06:23:00;99082.31;;;17.09;66.82
15678;BME280;7939;50.814;6.368;2022-10-15T06:25:27;99083.22;;;17.08;66.94
15678;BME280;7939;50.814;6.368;2022-10-15T06:27:53;99078.06;;;17.08;66.93
15678;BME280;7939;50.814;6.368;2022-10-15T06:30:20;99076.38;;;17.07;66.95
15678;BME280;7939;50.814;6.368;2022-10-15T06:32:49;99072.91;;;17.08;66.63
15678;BME280;7939;50.814;6.368;2022-10-15T06:35:17;99076.38;;;17.07;66.71
15678;BME280;7939;50.814;6.368;2022-10-15T06:37:43;99077.22;;;17.07;67.05
15678;BME280;7939;50.814;6.368;2022-10-15T06:40:11;99072.91;;;17.08;66.82
15678;BME280;7939;50.814;6.368;2022-10-15T06:42:38;99074.66;;;17.07;66.92
15678;BME280;7939;50.814;6.368;2022-10-15T06:45:06;99067.75;;;17.08;66.73
15678;BME280;7939;50.814;6.368;2022-10-15T06:47:34;99066.06;;;17.07;66.63
15678;BME280;7939;50.814;6.368;2022-10-15T06:50:02;99068.66;;;17.07;66.47
15678;BME280;7939;50.814;6.368;2022-10-15T06:52:30;99070.31;;;17.08;66.98
15678;BME280;7939;50.814;6.368;2022-10-15T06:54:57;99074.66;;;17.07;66.92
15678;BME280;7939;50.814;6.368;2022-10-15T06:57:23;99085.81;;;17.08;66.69
15678;BME280;7939;50.814;6.368;2022-10-15T06:59:50;99085.81;;;17.08;67.01
15678;BME280;7939;50.814;6.368;2022-10-15T07:02:17;99089.22;;;17.08;67.04
15678;BME280;7939;50.814;6.368;2022-10-15T07:04:44;99086.72;;;17.07;66.93
15678;BME280;7939;50.814;6.368;2022-10-15T07:07:12;99079.81;;;17.07;66.86
15678;BME280;7939;50.814;6.368;2022-10-15T07:09:38;99085.81;;;17.08;66.90
15678;BME280;7939;50.814;6.368;2022-10-15T07:12:05;99082.31;;;17.09;66.88
15678;BME280;7939;50.814;6.368;2022-10-15T07:14:32;99085.81;;;17.08;66.40
15678;BME280;7939;50.814;6.368;2022-10-15T07:16:59;99077.22;;;17.07;66.53
15678;BME280;7939;50.814;6.368;2022-10-15T07:19:25;99082.38;;;17.07;67.04
15678;BME280;7939;50.814;6.368;2022-10-15T07:21:53;99081.50;;;17.08;67.02
15678;BME280;7939;50.814;6.368;2022-10-15T07:24:21;99082.28;;;17.10;66.77
15678;BME280;7939;50.814;6.368;2022-10-15T07:26:48;99073.72;;;17.10;66.90
15678;BME280;7939;50.814;6.368;2022-10-15T07:29:15;99066.81;;;17.10;66.73
15678;BME280;7939;50.814;6.368;2022-10-15T07:31:41;99068.53;;;17.10;66.88
15678;BME280;7939;50.814;6.368;2022-10-15T07:34:08;99074.56;;;17.10;66.91
15678;BME280;7939;50.814;6.368;2022-10-15T07:36:35;99078.88;;;17.10;66.71
15678;BME280;7939;50.814;6.368;2022-10-15T07:39:02;99077.13;;;17.10;66.67
15678;BME280;7939;50.814;6.368;2022-10-15T07:41:30;99072.81;;;17.11;66.45
15678;BME280;7939;50.814;6.368;2022-10-15T07:43:57;99059.91;;;17.11;66.86
15678;BME280;7939;50.814;6.368;2022-10-15T07:46:23;99065.06;;;17.11;66.77
15678;BME280;7939;50.814;6.368;2022-10-15T07:48:51;99054.72;;;17.11;66.81
15678;BME280;7939;50.814;6.368;2022-10-15T07:51:17;99054.72;;;17.11;66.45
15678;BME280;7939;50.814;6.368;2022-10-15T07:53:44;99052.09;;;17.12;66.73
15678;BME280;7939;50.814;6.368;2022-10-15T07:56:13;99051.25;;;17.12;66.58
15678;BME280;7939;50.814;6.368;2022-10-15T07:58:42;99052.91;;;17.13;66.22
15678;BME280;7939;50.814;6.368;2022-10-15T08:01:16;99052.09;;;17.12;66.99
15678;BME280;7939;50.814;6.368;2022-10-15T08:03:44;99047.75;;;17.13;66.95
15678;BME280;7939;50.814;6.368;2022-10-15T08:06:11;99041.75;;;17.12;66.71
15678;BME280;7939;50.814;6.368;2022-10-15T08:08:37;99049.50;;;17.12;66.66
15678;BME280;7939;50.814;6.368;2022-10-15T08:11:05;99042.53;;;17.14;67.13
15678;BME280;7939;50.814;6.368;2022-10-15T08:13:31;99043.38;;;17.15;66.93
15678;BME280;7939;50.814;6.368;2022-10-15T08:15:59;99042.53;;;17.14;66.93
15678;BME280;7939;50.814;6.368;2022-10-15T08:18:26;99035.63;;;17.15;66.63
15678;BME280;7939;50.814;6.368;2022-10-15T08:20:53;99034.72;;;17.16;67.10
15678;BME280;7939;50.814;6.368;2022-10-15T08:23:19;99027.88;;;17.15;67.12
15678;BME280;7939;50.814;6.368;2022-10-15T08:25:46;99026.13;;;17.15;66.68
15678;BME280;7939;50.814;6.368;2022-10-15T08:28:12;99012.34;;;17.16;66.93
15678;BME280;7939;50.814;6.368;2022-10-15T08:30:39;99008.03;;;17.17;67.40
15678;BME280;7939;50.814;6.368;2022-10-15T08:33:07;99008.88;;;17.17;67.24
15678;BME280;7939;50.814;6.368;2022-10-15T08:35:33;99007.06;;;17.19;67.49
15678;BME280;7939;50.814;6.368;2022-10-15T08:38:03;99007.88;;;17.20;67.16
15678;BME280;7939;50.814;6.368;2022-10-15T08:40:29;99008.72;;;17.20;67.00
15678;BME280;7939;50.814;6.368;2022-10-15T08:42:56;99006.94;;;17.22;66.66
15678;BME280;7939;50.814;6.368;2022-10-15T08:45:27;99010.28;;;17.24;66.45
15678;BME280;7939;50.814;6.368;2022-10-15T08:47:58;99016.22;;;17.26;66.30
15678;BME280;7939;50.814;6.368;2022-10-15T08:50:35;99014.50;;;17.27;66.65
15678;BME280;7939;50.814;6.368;2022-10-15T08:53:04;99009.28;;;17.29;66.83
15678;BME280;7939;50.814;6.368;2022-10-15T08:55:37;99015.28;;;17.29;66.36
15678;BME280;7939;50.814;6.368;2022-10-15T08:58:11;99021.22;;;17.31;66.53
15678;BME280;7939;50.814;6.368;2022-10-15T09:00:42;99016.91;;;17.32;66.70
15678;BME280;7939;50.814;6.368;2022-10-15T09:03:14;99026.25;;;17.34;66.88
15678;BME280;7939;50.814;6.368;2022-10-15T09:05:56;99026.22;;;17.36;66.10
15678;BME280;7939;50.814;6.368;2022-10-15T09:08:29;99024.34;;;17.39;66.89
15678;BME280;7939;50.814;6.368;2022-10-15T09:10:59;99019.09;;;17.41;66.73
15678;BME280;7939;50.814;6.368;2022-10-15T09:13:31;99014.72;;;17.43;67.16
15678;BME280;7939;50.814;6.368;2022-10-15T09:16:01;99012.91;;;17.45;66.82
15678;BME280;7939;50.814;6.368;2022-10-15T09:18:32;99012.00;;;17.46;66.61
15678;BME280;7939;50.814;6.368;2022-10-15T09:21:03;99015.44;;;17.46;66.49
15678;BME280;7939;50.814;6.368;2022-10-15T09:23:31;99016.22;;;17.48;66.82
15678;BME280;7939;50.814;6.368;2022-10-15T09:26:02;99013.56;;;17.50;66.72
15678;BME280;7939;50.814;6.368;2022-10-15T09:28:38;99004.84;;;17.52;66.84
15678;BME280;7939;50.814;6.368;2022-10-15T09:31:08;99001.34;;;17.53;66.86
15678;BME280;7939;50.814;6.368;2022-10-15T09:33:42;98995.25;;;17.56;67.34
15678;BME280;7939;50.814;6.368;2022-10-15T09:36:24;98990.00;;;17.58;67.74
15678;BME280;7939;50.814;6.368;2022-10-15T09:39:07;98988.25;;;17.58;67.32
15678;BME280;7939;50.814;6.368;2022-10-15T09:41:49;98983.03;;;17.60;66.49
15678;BME280;7939;50.814;6.368;2022-10-15T09:44:22;98990.59;;;17.64;67.23
15678;BME280;7939;50.814;6.368;2022-10-15T09:46:50;98983.69;;;17.65;67.10
15678;BME280;7939;50.814;6.368;2022-10-15T09:49:19;98977.56;;;17.67;66.59
15678;BME280;7939;50.814;6.368;2022-10-15T09:51:56;98979.97;;;17.72;66.71
15678;BME280;7939;50.814;6.368;2022-10-15T09:54:30;98980.69;;;17.75;66.98
15678;BME280;7939;50.814;6.368;2022-10-15T09:57:02;98978.88;;;17.77;66.57
15678;BME280;7939;50.814;6.368;2022-10-15T09:59:28;98983.00;;;17.82;67.36
15678;BME280;7939;50.814;6.368;2022-10-15T10:01:58;98980.25;;;17.86;67.98
15678;BME280;7939;50.814;6.368;2022-10-15T10:04:26;98979.34;;;17.87;67.07
15678;BME280;7939;50.814;6.368;2022-10-15T10:06:56;98976.50;;;17.93;67.57
15678;BME280;7939;50.814;6.368;2022-10-15T10:09:24;98960.72;;;17.99;67.40
15678;BME280;7939;50.814;6.368;2022-10-15T10:11:57;98961.47;;;18.01;67.16
15678;BME280;7939;50.814;6.368;2022-10-15T10:14:27;98966.53;;;18.04;66.96
15678;BME280;7939;50.814;6.368;2022-10-15T10:17:07;98963.78;;;18.08;67.05
15678;BME280;7939;50.814;6.368;2022-10-15T10:19:39;98963.59;;;18.12;66.60
15678;BME280;7939;50.814;6.368;2022-10-15T10:22:14;98977.28;;;18.14;66.36
15678;BME280;7939;50.814;6.368;2022-10-15T10:24:42;98962.53;;;18.16;67.01
15678;BME280;7939;50.814;6.368;2022-10-15T10:27:21;98967.44;;;18.22;67.57
15678;BME280;7939;50.814;6.368;2022-10-15T10:29:52;98971.66;;;18.25;67.82
15678;BME280;7939;50.814;6.368;2022-10-15T10:32:21;98962.91;;;18.27;67.66
15678;BME280;7939;50.814;6.368;2022-10-15T10:34:49;98966.28;;;18.29;66.98
15678;BME280;7939;50.814;6.368;2022-10-15T10:37:17;98968.72;;;18.32;66.74
15678;BME280;7939;50.814;6.368;2022-10-15T10:39:44;98979.78;;;18.36;67.78
15678;BME280;7939;50.814;6.368;2022-10-15T10:42:31;98973.63;;;18.39;66.52
15678;BME280;7939;50.814;6.368;2022-10-15T10:45:15;98978.59;;;18.43;67.41
15678;BME280;7939;50.814;6.368;2022-10-15T10:47:42;98966.34;;;18.47;67.35
15678;BME280;7939;50.814;6.368;2022-10-15T10:50:28;98977.50;;;18.49;67.22
15678;BME280;7939;50.814;6.368;2022-10-15T10:52:56;98975.59;;;18.52;67.86
15678;BME280;7939;50.814;6.368;2022-10-15T10:55:38;98978.06;;;18.55;67.04
15678;BME280;7939;50.814;6.368;2022-10-15T10:58:08;98968.53;;;18.56;66.77
15678;BME280;7939;50.814;6.368;2022-10-15T11:00:39;98972.72;;;18.58;67.56
15678;BME280;7939;50.814;6.368;2022-10-15T11:03:30;98982.94;;;18.62;67.10
15678;BME280;7939;50.814;6.368;2022-10-15T11:06:07;98975.88;;;18.65;67.11
15678;BME280;7939;50.814;6.368;2022-10-15T11:08:44;98974.94;;;18.66;66.91
15678;BME280;7939;50.814;6.368;2022-10-15T11:11:18;98984.44;;;18.67;66.94
15678;BME280;7939;50.814;6.368;2022-10-15T11:13:56;98987.78;;;18.69;67.15
15678;BME280;7939;50.814;6.368;2022-10-15T11:16:32;98981.63;;;18.72;67.47
15678;BME280;7939;50.814;6.368;2022-10-15T11:19:12;98979.88;;;18.72;67.20
15678;BME280;7939;50.814;6.368;2022-10-15T11:21:48;98974.66;;;18.74;66.84
15678;BME280;7939;50.814;6.368;2022-10-15T11:24:20;98971.22;;;18.73;66.77
15678;BME280;7939;50.814;6.368;2022-10-15T11:27:00;98966.81;;;18.75;67.19
15678;BME280;7939;50.814;6.368;2022-10-15T11:29:35;98978.72;;;18.79;67.04
15678;BME280;7939;50.814;6.368;2022-10-15T11:32:14;98970.88;;;18.81;67.23
15678;BME280;7939;50.814;6.368;2022-10-15T11:34:59;98964.69;;;18.83;67.93
15678;BME280;7939;50.814;6.368;2022-10-15T11:37:37;98970.59;;;18.87;67.87
15678;BME280;7939;50.814;6.368;2022-10-15T11:40:19;98977.28;;;18.91;68.14
15678;BME280;7939;50.814;6.368;2022-10-15T11:42:52;98977.22;;;18.93;68.00
15678;BME280;7939;50.814;6.368;2022-10-15T11:45:35;98963.28;;;18.95;67.92
15678;BME280;7939;50.814;6.368;2022-10-15T11:48:09;98977.16;;;18.94;67.88
15678;BME280;7939;50.814;6.368;2022-10-15T11:50:41;98976.09;;;18.98;68.11
15678;BME280;7939;50.814;6.368;2022-10-15T11:53:47;98969.94;;;19.01;68.47
15678;BME280;7939;50.814;6.368;2022-10-15T11:56:21;98973.28;;;19.03;67.90
15678;BME280;7939;50.814;6.368;2022-10-15T11:58:53;98968.09;;;19.03;68.09
15678;BME280;7939;50.814;6.368;2022-10-15T12:01:25;98970.47;;;19.07;68.59
15678;BME280;7939;50.814;6.368;2022-10-15T12:03:56;98973.06;;;19.07;68.74
15678;BME280;7939;50.814;6.368;2022-10-15T12:06:28;98969.47;;;19.10;68.29
15678;BME280;7939;50.814;6.368;2022-10-15T12:08:56;98963.44;;;19.09;67.96
15678;BME280;7939;50.814;6.368;2022-10-15T12:11:38;98965.06;;;19.12;68.23
15678;BME280;7939;50.814;6.368;2022-10-15T12:14:15;98962.50;;;19.12;68.50
15678;BME280;7939;50.814;6.368;2022-10-15T12:16:45;98958.16;;;19.12;68.24
15678;BME280;7939;50.814;6.368;2022-10-15T12:19:18;98945.03;;;19.16;68.29
15678;BME280;7939;50.814;6.368;2022-10-15T12:22:01;98945.81;;;19.18;67.85
15678;BME280;7939;50.814;6.368;2022-10-15T12:24:49;98951.75;;;19.20;68.36
15678;BME280;7939;50.814;6.368;2022-10-15T12:27:31;98951.66;;;19.21;68.29
15678;BME280;7939;50.814;6.368;2022-10-15T12:30:18;98950.75;;;19.22;68.50
15678;BME280;7939;50.814;6.368;2022-10-15T12:32:46;98953.28;;;19.24;68.30
15678;BME280;7939;50.814;6.368;2022-10-15T12:35:24;98963.34;;;19.30;68.30
15678;BME280;7939;50.814;6.368;2022-10-15T12:37:54;98958.94;;;19.32;68.72
15678;BME280;7939;50.814;6.368;2022-10-15T12:40:34;98952.81;;;19.33;68.25
15678;BME280;7939;50.814;6.368;2022-10-15T12:43:11;98935.44;;;19.35;67.84
15678;BME280;7939;50.814;6.368;2022-10-15T12:45:48;98946.50;;;19.38;67.90
15678;BME280;7939;50.814;6.368;2022-10-15T12:48:22;98947.34;;;19.39;68.38
15678;BME280;7939;50.814;6.368;2022-10-15T12:53:59;98939.34;;;19.44;68.01
15678;BME280;7939;50.814;6.368;2022-10-15T12:56:36;98931.50;;;19.45;67.73
15678;BME280;7939;50.814;6.368;2022-10-15T12:59:27;98920.97;;;19.48;67.70
15678;BME280;7939;50.814;6.368;2022-10-15T13:01:55;98925.31;;;19.48;68.25
15678;BME280;7939;50.814;6.368;2022-10-15T13:04:21;98934.63;;;19.52;67.98
15678;BME280;7939;50.814;6.368;2022-10-15T13:06:48;98918.06;;;19.54;68.00
15678;BME280;7939;50.814;6.368;2022-10-15T13:09:25;98926.63;;;19.56;67.71
15678;BME280;7939;50.814;6.368;2022-10-15T13:11:55;98917.09;;;19.57;67.67
15678;BME280;7939;50.814;6.368;2022-10-15T13:14:32;98924.81;;;19.58;67.95
15678;BME280;7939;50.814;6.368;2022-10-15T13:17:03;98923.06;;;19.59;67.42
15678;BME280;7939;50.814;6.368;2022-10-15T13:19:33;98931.59;;;19.61;67.77
15678;BME280;7939;50.814;6.368;2022-10-15T13:22:04;98921.16;;;19.62;67.99
15678;BME280;7939;50.814;6.368;2022-10-15T13:24:39;98927.94;;;19.65;67.68
15678;BME280;7939;50.814;6.368;2022-10-15T13:27:13;98919.22;;;19.66;67.03
15678;BME280;7939;50.814;6.368;2022-10-15T13:29:51;98927.78;;;19.68;67.50
15678;BME280;7939;50.814;6.368;2022-10-15T13:32:19;98926.03;;;19.69;66.92